Time;durP1;ratioP1;P1;durP2;ratioP2;P2;SDS_P1;SDS_P2;PMS_P1;PMS_P2;Temp;Humidity;BMP_temperature;BMP_pressure;BME280_temperature;BME280_humidity;BME280_pressure;Samples;Min_cycle;Max_cycle;Signal;HPM_P1;HPM_P2
2023/11/06 00:00:33;;;;;;;0.10;0.10;;;;;;;;;;4997820;28;20464;-89
2023/11/06 00:02:59;;;;;;;0.10;0.10;;;;;;;;;;5014155;28;20049;-89
2023/11/06 00:05:25;;;;;;;0.10;0.10;;;;;;;;;;4997793;28;20513;-88
2023/11/06 00:07:51;;;;;;;0.30;0.30;;;;;;;;;;4997783;28;20056;-88
2023/11/06 00:10:17;;;;;;;0.10;0.10;;;;;;;;;;4998178;28;20129;-89
2023/11/06 00:12:44;;;;;;;0.10;0.10;;;;;;;;;;4981508;28;20047;-88
2023/11/06 00:15:13;;;;;;;0.10;0.10;;;;;;;;;;4997601;28;20045;-88
2023/11/06 00:17:39;;;;;;;0.10;0.10;;;;;;;;;;5013971;28;20053;-88
2023/11/06 00:20:10;;;;;;;0.10;0.10;;;;;;;;;;4997548;28;20045;-87
2023/11/06 00:22:36;;;;;;;0.10;0.10;;;;;;;;;;5013937;28;20331;-88
2023/11/06 00:25:02;;;;;;;0.10;0.10;;;;;;;;;;5014370;28;20127;-89
2023/11/06 00:27:28;;;;;;;0.10;0.10;;;;;;;;;;4999058;28;20200;-88
2023/11/06 00:29:54;;;;;;;0.10;0.10;;;;;;;;;;5001196;28;20041;-88
2023/11/06 00:32:20;;;;;;;0.10;0.10;;;;;;;;;;5001210;28;20041;-89
2023/11/06 00:34:46;;;;;;;0.10;0.10;;;;;;;;;;5001327;28;20042;-88
2023/11/06 00:37:12;;;;;;;0.10;0.10;;;;;;;;;;5001056;28;20033;-88
2023/11/06 00:39:38;;;;;;;0.10;0.10;;;;;;;;;;5017327;28;20120;-88
2023/11/06 00:42:04;;;;;;;0.10;0.10;;;;;;;;;;5001251;28;20176;-88
2023/11/06 00:44:30;;;;;;;0.20;0.20;;;;;;;;;;5001428;28;20049;-88
2023/11/06 00:46:57;;;;;;;0.20;0.20;;;;;;;;;;5001240;28;20045;-88
2023/11/06 00:49:23;;;;;;;0.10;0.10;;;;;;;;;;5000843;28;20503;-88
2023/11/06 00:51:49;;;;;;;0.10;0.10;;;;;;;;;;5017062;28;20049;-88
2023/11/06 00:54:14;;;;;;;0.10;0.10;;;;;;;;;;5000847;28;20405;-88
2023/11/06 00:56:41;;;;;;;0.10;0.10;;;;;;;;;;5017057;28;20087;-89
2023/11/06 00:59:07;;;;;;;0.10;0.10;;;;;;;;;;5000705;28;20053;-88
2023/11/06 01:01:33;;;;;;;0.10;0.10;;;;;;;;;;5000826;28;20079;-89
2023/11/06 01:03:59;;;;;;;0.10;0.10;;;;;;;;;;5000552;28;20060;-89
2023/11/06 01:06:25;;;;;;;0.20;0.20;;;;;;;;;;5016884;28;20041;-88
2023/11/06 01:08:51;;;;;;;0.10;0.10;;;;;;;;;;5000249;28;20060;-89
2023/11/06 01:11:18;;;;;;;0.10;0.10;;;;;;;;;;5000495;28;20046;-89
2023/11/06 01:13:44;;;;;;;0.10;0.10;;;;;;;;;;5000586;28;20041;-88
2023/11/06 01:16:09;;;;;;;0.10;0.10;;;;;;;;;;5000231;28;20049;-88
2023/11/06 01:18:36;;;;;;;0.10;0.10;;;;;;;;;;5016723;28;20112;-88
2023/11/06 01:21:02;;;;;;;0.10;0.10;;;;;;;;;;5000279;28;20072;-88
2023/11/06 01:23:28;;;;;;;0.10;0.10;;;;;;;;;;5000589;28;20045;-88
2023/11/06 01:25:54;;;;;;;0.10;0.10;;;;;;;;;;5000154;28;20042;-88
2023/11/06 01:28:20;;;;;;;0.17;0.17;;;;;;;;;;5000246;28;20049;-88
2023/11/06 01:30:46;;;;;;;0.10;0.10;;;;;;;;;;5000225;28;20099;-88
2023/11/06 01:33:12;;;;;;;0.10;0.10;;;;;;;;;;5000366;28;20044;-89
2023/11/06 01:35:38;;;;;;;0.10;0.10;;;;;;;;;;5000154;28;20044;-88
2023/11/06 01:38:04;;;;;;;0.10;0.10;;;;;;;;;;5000039;28;20408;-88
2023/11/06 01:40:30;;;;;;;0.10;0.10;;;;;;;;;;4999504;28;20045;-88
2023/11/06 01:42:56;;;;;;;0.10;0.10;;;;;;;;;;5016206;28;20551;-88
2023/11/06 01:45:22;;;;;;;0.10;0.10;;;;;;;;;;5000073;28;20136;-88
2023/11/06 01:47:48;;;;;;;0.20;0.20;;;;;;;;;;4999901;28;20484;-88
2023/11/06 01:50:14;;;;;;;0.22;0.22;;;;;;;;;;5016043;28;20104;-88
2023/11/06 01:52:40;;;;;;;0.10;0.10;;;;;;;;;;4999814;28;20504;-88
2023/11/06 01:55:06;;;;;;;0.10;0.10;;;;;;;;;;4999953;28;20065;-88
2023/11/06 01:57:32;;;;;;;0.10;0.10;;;;;;;;;;5016170;28;20488;-88
2023/11/06 01:59:58;;;;;;;0.10;0.10;;;;;;;;;;4999410;28;20041;-88
2023/11/06 02:02:27;;;;;;;0.10;0.10;;;;;;;;;;4999630;28;20045;-88
2023/11/06 02:04:53;;;;;;;0.20;0.20;;;;;;;;;;4999871;28;20038;-88
2023/11/06 02:07:18;;;;;;;0.10;0.10;;;;;;;;;;5015700;28;20186;-88
2023/11/06 02:09:45;;;;;;;0.10;0.10;;;;;;;;;;4999433;28;20073;-88
2023/11/06 02:12:11;;;;;;;0.10;0.10;;;;;;;;;;4999442;28;20049;-91
2023/11/06 02:14:49;;;;;;;0.10;0.10;;;;;;;;;;4999320;28;20420;-89
2023/11/06 02:17:15;;;;;;;0.20;0.20;;;;;;;;;;4999141;28;20053;-90
2023/11/06 02:19:41;;;;;;;0.10;0.10;;;;;;;;;;4999218;28;20041;-89
2023/11/06 02:22:08;;;;;;;0.10;0.10;;;;;;;;;;5015721;28;20483;-90
2023/11/06 02:24:34;;;;;;;0.10;0.10;;;;;;;;;;4999262;28;20045;-88
2023/11/06 02:27:00;;;;;;;0.10;0.10;;;;;;;;;;4999403;28;20132;-88
2023/11/06 02:29:25;;;;;;;0.20;0.20;;;;;;;;;;4998955;28;20048;-88
2023/11/06 02:31:51;;;;;;;0.10;0.10;;;;;;;;;;5015397;28;20041;-88
2023/11/06 02:34:17;;;;;;;0.10;0.10;;;;;;;;;;5015510;28;20041;-88
2023/11/06 02:36:43;;;;;;;0.20;0.20;;;;;;;;;;4998965;28;20037;-88
2023/11/06 02:39:10;;;;;;;0.10;0.10;;;;;;;;;;4999159;28;20189;-88
2023/11/06 02:41:36;;;;;;;0.10;0.10;;;;;;;;;;4998967;28;20424;-88
2023/11/06 02:44:02;;;;;;;0.10;0.10;;;;;;;;;;4998701;28;20048;-88
2023/11/06 02:46:28;;;;;;;0.22;0.22;;;;;;;;;;4998762;28;20041;-88
2023/11/06 02:48:54;;;;;;;0.10;0.10;;;;;;;;;;4998943;28;20038;-87
2023/11/06 02:51:20;;;;;;;0.17;0.17;;;;;;;;;;4998485;28;20099;-88
2023/11/06 02:53:46;;;;;;;0.10;0.10;;;;;;;;;;5014879;28;20041;-87
2023/11/06 02:56:12;;;;;;;0.10;0.10;;;;;;;;;;4998656;28;20358;-88
2023/11/06 02:58:39;;;;;;;0.10;0.10;;;;;;;;;;4998931;28;20128;-88
2023/11/06 03:01:05;;;;;;;0.10;0.10;;;;;;;;;;4998578;28;20091;-89
2023/11/06 03:03:31;;;;;;;0.10;0.10;;;;;;;;;;4998463;28;20037;-89
2023/11/06 03:05:57;;;;;;;0.10;0.10;;;;;;;;;;4998437;28;20045;-89
2023/11/06 03:08:23;;;;;;;0.10;0.10;;;;;;;;;;4998413;28;20508;-88
2023/11/06 03:10:49;;;;;;;0.10;0.10;;;;;;;;;;5014437;28;20045;-88
2023/11/06 03:13:15;;;;;;;0.10;0.10;;;;;;;;;;4998430;28;20397;-88
2023/11/06 03:15:41;;;;;;;0.20;0.20;;;;;;;;;;4998341;28;20056;-88
2023/11/06 03:18:07;;;;;;;0.10;0.10;;;;;;;;;;5014552;28;20489;-88
2023/11/06 03:20:33;;;;;;;0.10;0.10;;;;;;;;;;4998177;28;20061;-88
2023/11/06 03:22:59;;;;;;;0.10;0.10;;;;;;;;;;4998276;28;20041;-88
2023/11/06 03:25:25;;;;;;;0.10;0.10;;;;;;;;;;4998426;28;20034;-88
2023/11/06 03:27:51;;;;;;;0.10;0.10;;;;;;;;;;4998319;28;20042;-88
2023/11/06 03:30:17;;;;;;;0.10;0.10;;;;;;;;;;4998173;28;20079;-89
2023/11/06 03:32:43;;;;;;;0.10;0.10;;;;;;;;;;5014644;28;20048;-88
2023/11/06 03:35:09;;;;;;;0.20;0.20;;;;;;;;;;4998576;28;20117;-89
2023/11/06 03:37:35;;;;;;;0.10;0.10;;;;;;;;;;4998081;28;20436;-88
2023/11/06 03:40:01;;;;;;;0.20;0.20;;;;;;;;;;5014229;28;20045;-88
2023/11/06 03:42:27;;;;;;;0.10;0.10;;;;;;;;;;4997893;28;20042;-88
2023/11/06 03:44:53;;;;;;;0.10;0.10;;;;;;;;;;5014186;28;20052;-88
2023/11/06 03:47:19;;;;;;;0.20;0.20;;;;;;;;;;4997933;28;20053;-89
2023/11/06 03:49:45;;;;;;;0.28;0.28;;;;;;;;;;5014263;28;20037;-88
2023/11/06 03:52:11;;;;;;;0.10;0.10;;;;;;;;;;5014371;28;20046;-88
2023/11/06 03:54:42;;;;;;;0.10;0.10;;;;;;;;;;4997862;28;20065;-88
2023/11/06 03:57:08;;;;;;;0.20;0.20;;;;;;;;;;4998150;28;20045;-88
2023/11/06 03:59:34;;;;;;;0.10;0.10;;;;;;;;;;4997900;28;20048;-89
2023/11/06 04:02:00;;;;;;;0.10;0.10;;;;;;;;;;4998740;28;20037;-89
2023/11/06 04:04:26;;;;;;;0.10;0.10;;;;;;;;;;5018330;28;20045;-88
2023/11/06 04:06:52;;;;;;;0.10;0.10;;;;;;;;;;5018121;28;20042;-88
2023/11/06 04:09:17;;;;;;;0.10;0.10;;;;;;;;;;5001449;28;20041;-88
2023/11/06 04:11:45;;;;;;;0.20;0.20;;;;;;;;;;5017972;28;20099;-88
2023/11/06 04:14:11;;;;;;;0.20;0.20;;;;;;;;;;5018225;28;20037;-88
2023/11/06 04:16:37;;;;;;;0.20;0.20;;;;;;;;;;5001748;28;20520;-87
2023/11/06 04:19:03;;;;;;;0.10;0.10;;;;;;;;;;5017976;28;20179;-88
2023/11/06 04:21:29;;;;;;;0.68;0.20;;;;;;;;;;5001781;28;20060;-88
2023/11/06 04:23:55;;;;;;;0.10;0.10;;;;;;;;;;5017855;28;20053;-88
2023/11/06 04:26:21;;;;;;;0.30;0.30;;;;;;;;;;5001732;28;20139;-88
2023/11/06 04:28:47;;;;;;;0.10;0.10;;;;;;;;;;5017534;28;20076;-88
2023/11/06 04:31:13;;;;;;;0.10;0.10;;;;;;;;;;5017611;28;20076;-88
2023/11/06 04:33:39;;;;;;;0.10;0.10;;;;;;;;;;5001530;28;20048;-88
2023/11/06 04:36:05;;;;;;;0.10;0.10;;;;;;;;;;5001195;28;20092;-89
2023/11/06 04:38:31;;;;;;;0.10;0.10;;;;;;;;;;5017332;28;20049;-89
2023/11/06 04:40:57;;;;;;;0.20;0.20;;;;;;;;;;4984922;28;20107;-88
2023/11/06 04:43:23;;;;;;;0.70;0.30;;;;;;;;;;5001155;28;20508;-89
2023/11/06 04:45:49;;;;;;;0.15;0.15;;;;;;;;;;5017557;28;20034;-89
2023/11/06 04:48:16;;;;;;;0.10;0.10;;;;;;;;;;5017417;28;20037;-89
2023/11/06 04:50:42;;;;;;;0.10;0.10;;;;;;;;;;4984565;28;20488;-89
2023/11/06 04:53:08;;;;;;;0.20;0.20;;;;;;;;;;5000859;28;20076;-89
2023/11/06 04:55:34;;;;;;;0.10;0.10;;;;;;;;;;5000880;28;20513;-88
2023/11/06 04:58:00;;;;;;;0.38;0.30;;;;;;;;;;5000918;28;20033;-89
2023/11/06 05:00:26;;;;;;;0.10;0.10;;;;;;;;;;5000940;28;20437;-89
2023/11/06 05:02:53;;;;;;;0.10;0.10;;;;;;;;;;5000667;28;20052;-89
2023/11/06 05:05:19;;;;;;;0.10;0.10;;;;;;;;;;5000822;28;20045;-88
2023/11/06 05:07:45;;;;;;;0.10;0.10;;;;;;;;;;5016946;28;20382;-89
2023/11/06 05:10:10;;;;;;;0.10;0.10;;;;;;;;;;5000543;28;20076;-89
2023/11/06 05:12:37;;;;;;;0.10;0.10;;;;;;;;;;4984303;28;20510;-89
2023/11/06 05:15:03;;;;;;;0.20;0.20;;;;;;;;;;4983114;28;20095;-88
2023/11/06 05:17:29;;;;;;;0.10;0.10;;;;;;;;;;5000763;28;20045;-89
2023/11/06 05:19:55;;;;;;;0.10;0.10;;;;;;;;;;5000350;28;20042;-89
2023/11/06 05:22:22;;;;;;;0.10;0.10;;;;;;;;;;5000278;28;20045;-89
2023/11/06 05:24:48;;;;;;;0.10;0.10;;;;;;;;;;5000432;28;20448;-89
2023/11/06 05:27:14;;;;;;;0.20;0.20;;;;;;;;;;5000516;28;20038;-89
2023/11/06 05:29:40;;;;;;;0.20;0.20;;;;;;;;;;5000160;28;20155;-89
2023/11/06 05:32:06;;;;;;;0.10;0.10;;;;;;;;;;5000147;28;20124;-89
2023/11/06 05:34:32;;;;;;;0.28;0.20;;;;;;;;;;5000006;28;20045;-89
2023/11/06 05:36:58;;;;;;;0.25;0.15;;;;;;;;;;5000106;28;20038;-89
2023/11/06 05:39:24;;;;;;;0.30;0.30;;;;;;;;;;5000059;28;20056;-89
2023/11/06 05:41:51;;;;;;;0.10;0.10;;;;;;;;;;5016389;28;20045;-89
2023/11/06 05:44:17;;;;;;;4.00;0.40;;;;;;;;;;5000015;28;20053;-89
2023/11/06 05:46:44;;;;;;;0.10;0.10;;;;;;;;;;5016177;28;20408;-89
2023/11/06 05:49:10;;;;;;;0.10;0.10;;;;;;;;;;4999639;28;20124;-89
2023/11/06 05:51:37;;;;;;;0.35;0.35;;;;;;;;;;4999769;28;20045;-88
2023/11/06 05:54:03;;;;;;;0.17;0.17;;;;;;;;;;5000125;28;20042;-88
2023/11/06 05:56:29;;;;;;;0.10;0.10;;;;;;;;;;4999838;28;20056;-88
2023/11/06 05:58:55;;;;;;;0.10;0.10;;;;;;;;;;5015861;28;20041;-88
2023/11/06 06:01:21;;;;;;;0.30;0.30;;;;;;;;;;4999741;28;20103;-88
2023/11/06 06:03:47;;;;;;;0.10;0.10;;;;;;;;;;4999674;28;20041;-88
2023/11/06 06:06:16;;;;;;;0.20;0.20;;;;;;;;;;5016116;28;20053;-88
2023/11/06 06:08:42;;;;;;;0.10;0.10;;;;;;;;;;4999921;28;20042;-88
2023/11/06 06:11:08;;;;;;;0.10;0.10;;;;;;;;;;4999698;28;20096;-88
2023/11/06 06:13:34;;;;;;;0.10;0.10;;;;;;;;;;4999506;28;20508;-87
2023/11/06 06:16:03;;;;;;;0.10;0.10;;;;;;;;;;5015529;28;20401;-87
2023/11/06 06:18:29;;;;;;;0.40;0.40;;;;;;;;;;5015389;28;20097;-88
2023/11/06 06:20:55;;;;;;;0.20;0.20;;;;;;;;;;5015438;28;20033;-87
2023/11/06 06:23:21;;;;;;;0.20;0.20;;;;;;;;;;5015636;28;20459;-87
2023/11/06 06:25:47;;;;;;;0.10;0.10;;;;;;;;;;4999145;28;20120;-87
2023/11/06 06:28:13;;;;;;;0.10;0.10;;;;;;;;;;4999128;28;20497;-87
2023/11/06 06:30:39;;;;;;;0.20;0.20;;;;;;;;;;4999053;28;20065;-87
2023/11/06 06:33:05;;;;;;;0.10;0.10;;;;;;;;;;4998923;28;20147;-88
2023/11/06 06:35:31;;;;;;;0.10;0.10;;;;;;;;;;5015330;28;20073;-87
2023/11/06 06:37:57;;;;;;;0.10;0.10;;;;;;;;;;4999017;28;20496;-87
2023/11/06 06:40:25;;;;;;;0.10;0.10;;;;;;;;;;4998989;28;20055;-87
2023/11/06 06:42:51;;;;;;;0.20;0.20;;;;;;;;;;4998965;28;20049;-87
2023/11/06 06:45:17;;;;;;;0.10;0.10;;;;;;;;;;4998801;28;20056;-87
2023/11/06 06:47:43;;;;;;;0.10;0.10;;;;;;;;;;5015006;28;20049;-87
2023/11/06 06:50:09;;;;;;;0.20;0.20;;;;;;;;;;4998636;28;20041;-88
2023/11/06 06:52:35;;;;;;;0.10;0.10;;;;;;;;;;5014881;28;20080;-89
2023/11/06 06:55:02;;;;;;;0.20;0.20;;;;;;;;;;5014976;28;20053;-89
2023/11/06 06:57:28;;;;;;;0.10;0.10;;;;;;;;;;4998869;28;20048;-89
2023/11/06 06:59:54;;;;;;;0.32;0.32;;;;;;;;;;4998592;28;20037;-89
2023/11/06 07:02:19;;;;;;;0.20;0.20;;;;;;;;;;5014995;28;20447;-89
2023/11/06 07:04:46;;;;;;;0.20;0.20;;;;;;;;;;4998765;28;20045;-89
2023/11/06 07:07:12;;;;;;;0.10;0.10;;;;;;;;;;5014981;28;20199;-88
2023/11/06 07:09:38;;;;;;;0.20;0.20;;;;;;;;;;4998394;28;20512;-88
2023/11/06 07:12:04;;;;;;;0.15;0.15;;;;;;;;;;4998505;28;20046;-88
2023/11/06 07:14:31;;;;;;;0.10;0.10;;;;;;;;;;5014531;28;20132;-89
2023/11/06 07:17:03;;;;;;;0.17;0.17;;;;;;;;;;4998393;28;20048;-89
2023/11/06 07:19:29;;;;;;;0.23;0.23;;;;;;;;;;4983121;28;20045;-90
2023/11/06 07:21:55;;;;;;;0.10;0.10;;;;;;;;;;4998519;28;20284;-89
2023/11/06 07:24:21;;;;;;;0.10;0.10;;;;;;;;;;4998579;28;20044;-89
2023/11/06 07:26:47;;;;;;;0.20;0.20;;;;;;;;;;4998344;28;20045;-89
2023/11/06 07:29:13;;;;;;;0.10;0.10;;;;;;;;;;4998200;28;20049;-89
2023/11/06 07:31:39;;;;;;;0.20;0.20;;;;;;;;;;4998144;28;20041;-90
2023/11/06 07:34:06;;;;;;;0.10;0.10;;;;;;;;;;4998223;28;20061;-89
2023/11/06 07:36:33;;;;;;;0.10;0.10;;;;;;;;;;5013757;28;20045;-89
2023/11/06 07:38:59;;;;;;;0.20;0.20;;;;;;;;;;4982217;28;20045;-90
2023/11/06 07:41:25;;;;;;;0.10;0.10;;;;;;;;;;4982106;28;20523;-89
2023/11/06 07:43:51;;;;;;;0.10;0.10;;;;;;;;;;4998227;28;20042;-89
2023/11/06 07:46:17;;;;;;;0.10;0.10;;;;;;;;;;4998030;28;20088;-89
2023/11/06 07:48:43;;;;;;;0.10;0.10;;;;;;;;;;4982217;28;20330;-89
2023/11/06 07:51:09;;;;;;;0.10;0.10;;;;;;;;;;4997917;28;20144;-88
2023/11/06 07:53:37;;;;;;;0.40;0.40;;;;;;;;;;4998058;28;20041;-87
2023/11/06 07:56:03;;;;;;;0.10;0.10;;;;;;;;;;4998174;28;20042;-87
2023/11/06 07:58:29;;;;;;;0.20;0.20;;;;;;;;;;4982010;28;20061;-87
2023/11/06 08:00:55;;;;;;;0.10;0.10;;;;;;;;;;4993259;28;20496;-88
2023/11/06 08:03:21;;;;;;;0.20;0.20;;;;;;;;;;4994598;28;20046;-90
2023/11/06 08:05:47;;;;;;;0.20;0.20;;;;;;;;;;4964078;28;20176;-89
2023/11/06 08:08:13;;;;;;;0.10;0.10;;;;;;;;;;4997969;28;20049;-89
2023/11/06 08:10:39;;;;;;;0.17;0.17;;;;;;;;;;5031282;28;20524;-86
2023/11/06 08:13:05;;;;;;;0.10;0.10;;;;;;;;;;4997741;28;20049;-94
2023/11/06 08:15:31;;;;;;;0.13;0.13;;;;;;;;;;4981771;28;20049;-91
2023/11/06 08:17:57;;;;;;;0.10;0.10;;;;;;;;;;4997544;28;20076;-90
2023/11/06 08:20:23;;;;;;;0.10;0.10;;;;;;;;;;5014111;28;20406;-90
2023/11/06 08:22:50;;;;;;;0.10;0.10;;;;;;;;;;4997813;28;20045;-92
2023/11/06 08:25:16;;;;;;;0.10;0.10;;;;;;;;;;4997712;28;20099;-88
2023/11/06 08:27:51;;;;;;;0.10;0.10;;;;;;;;;;5014422;28;20069;-96
2023/11/06 08:30:19;;;;;;;0.10;0.10;;;;;;;;;;4996751;28;20555;-93
2023/11/06 08:32:45;;;;;;;0.10;0.10;;;;;;;;;;5011797;28;20115;-95
2023/11/06 08:35:11;;;;;;;0.20;0.20;;;;;;;;;;5017301;28;20037;-92
2023/11/06 08:37:37;;;;;;;0.20;0.20;;;;;;;;;;4997975;28;20037;-89
2023/11/06 08:40:03;;;;;;;0.20;0.20;;;;;;;;;;5013563;28;20041;-91
2023/11/06 08:42:30;;;;;;;0.10;0.10;;;;;;;;;;5013833;28;20068;-90
2023/11/06 08:44:57;;;;;;;0.20;0.20;;;;;;;;;;5013858;28;20184;-89
2023/11/06 08:47:23;;;;;;;0.15;0.15;;;;;;;;;;4997187;28;20049;-89
2023/11/06 08:49:49;;;;;;;0.10;0.10;;;;;;;;;;5016996;28;20124;-90
2023/11/06 08:52:16;;;;;;;0.10;0.10;;;;;;;;;;5000516;28;20120;-89
2023/11/06 08:54:45;;;;;;;0.10;0.10;;;;;;;;;;5000761;28;20508;-89
2023/11/06 08:57:12;;;;;;;1.48;0.30;;;;;;;;;;5017657;28;20044;-90
2023/11/06 08:59:38;;;;;;;0.10;0.10;;;;;;;;;;5001107;28;20092;-91
2023/11/06 09:02:04;;;;;;;0.10;0.10;;;;;;;;;;5017357;28;20073;-90
2023/11/06 09:04:34;;;;;;;0.10;0.10;;;;;;;;;;5016993;28;20045;-96
2023/11/06 09:07:03;;;;;;;0.10;0.10;;;;;;;;;;5001738;28;20057;-94
2023/11/06 09:09:29;;;;;;;0.13;0.13;;;;;;;;;;5018055;28;20049;-90
2023/11/06 09:11:55;;;;;;;0.10;0.10;;;;;;;;;;5000316;28;20079;-90
2023/11/06 09:14:21;;;;;;;0.10;0.10;;;;;;;;;;5000310;28;20480;-92
2023/11/06 09:16:47;;;;;;;0.10;0.10;;;;;;;;;;4985240;28;20150;-93
2023/11/06 09:19:13;;;;;;;0.10;0.10;;;;;;;;;;5017216;28;20052;-91
2023/11/06 09:21:39;;;;;;;0.10;0.10;;;;;;;;;;4984871;28;20050;-92
2023/11/06 09:24:06;;;;;;;0.10;0.10;;;;;;;;;;5000852;28;20041;-92
2023/11/06 09:26:32;;;;;;;0.10;0.10;;;;;;;;;;5000992;28;20500;-92
2023/11/06 09:29:01;;;;;;;0.10;0.10;;;;;;;;;;5001232;28;20520;-92
2023/11/06 09:31:28;;;;;;;0.10;0.10;;;;;;;;;;5001521;28;20443;-93
2023/11/06 09:33:59;;;;;;;0.10;0.10;;;;;;;;;;5017425;28;20037;-92
2023/11/06 09:36:25;;;;;;;0.10;0.10;;;;;;;;;;4985656;28;20041;-93
2023/11/06 09:38:55;;;;;;;0.10;0.10;;;;;;;;;;5001305;28;20489;-92
2023/11/06 09:41:27;;;;;;;0.10;0.10;;;;;;;;;;5005335;28;20056;-95
2023/11/06 09:47:28;;;;;;;0.10;0.10;;;;;;;;;;1501741;23;20341;-89
2023/11/06 09:50:04;;;;;;;0.20;0.20;;;;;;;;;;4938182;29;20165;-89
2023/11/06 09:52:30;;;;;;;0.10;0.10;;;;;;;;;;4939182;29;20058;-89
2023/11/06 09:54:56;;;;;;;0.10;0.10;;;;;;;;;;4938854;29;20047;-89
2023/11/06 09:57:22;;;;;;;0.10;0.10;;;;;;;;;;4938959;29;20136;-90
2023/11/06 09:59:48;;;;;;;0.10;0.10;;;;;;;;;;4922415;29;20126;-87
2023/11/06 10:02:14;;;;;;;0.10;0.10;;;;;;;;;;4954339;29;20057;-89
2023/11/06 10:04:40;;;;;;;0.10;0.10;;;;;;;;;;4922887;29;20051;-87
2023/11/06 10:07:06;;;;;;;0.10;0.10;;;;;;;;;;4938437;29;20527;-88
2023/11/06 10:09:34;;;;;;;0.20;0.20;;;;;;;;;;4922732;29;20039;-87
2023/11/06 10:12:14;;;;;;;0.10;0.10;;;;;;;;;;4955032;29;20467;-87
2023/11/06 10:14:40;;;;;;;0.10;0.10;;;;;;;;;;4942056;29;20483;-86
2023/11/06 10:17:06;;;;;;;0.10;0.10;;;;;;;;;;4925388;29;20070;-87
2023/11/06 10:19:34;;;;;;;0.10;0.10;;;;;;;;;;4938930;29;20086;-87
2023/11/06 10:22:16;;;;;;;0.10;0.10;;;;;;;;;;4938189;29;20043;-87
2023/11/06 10:24:51;;;;;;;0.10;0.10;;;;;;;;;;4954321;29;20082;-87
2023/11/06 10:27:29;;;;;;;0.10;0.10;;;;;;;;;;4938201;29;20529;-87
2023/11/06 10:30:05;;;;;;;0.10;0.10;;;;;;;;;;4938900;29;20051;-87
2023/11/06 10:32:31;;;;;;;0.10;0.10;;;;;;;;;;4953861;29;20081;-87
2023/11/06 10:35:13;;;;;;;0.10;0.10;;;;;;;;;;4920625;29;20090;-87
2023/11/06 10:37:41;;;;;;;0.10;0.10;;;;;;;;;;4937268;29;20388;-88
2023/11/06 10:40:08;;;;;;;0.10;0.10;;;;;;;;;;4939031;29;20043;-91
2023/11/06 10:42:34;;;;;;;0.10;0.10;;;;;;;;;;4954804;29;20506;-90
2023/11/06 10:45:01;;;;;;;0.10;0.10;;;;;;;;;;4937623;29;20179;-91
2023/11/06 10:47:27;;;;;;;0.20;0.20;;;;;;;;;;4937263;28;20525;-91
2023/11/06 10:50:01;;;;;;;0.10;0.10;;;;;;;;;;4940943;28;20086;-89
2023/11/06 10:52:28;;;;;;;0.10;0.10;;;;;;;;;;4925421;28;20074;-91
2023/11/06 10:54:56;;;;;;;0.10;0.10;;;;;;;;;;4943881;28;20035;-90
2023/11/06 10:57:22;;;;;;;0.10;0.10;;;;;;;;;;4927709;28;20054;-89
2023/11/06 10:59:49;;;;;;;0.20;0.20;;;;;;;;;;4942423;28;20039;-89
2023/11/06 11:02:29;;;;;;;0.10;0.10;;;;;;;;;;4942820;28;20089;-90
2023/11/06 11:04:55;;;;;;;0.20;0.20;;;;;;;;;;4958773;28;20038;-91
2023/11/06 11:07:21;;;;;;;0.10;0.10;;;;;;;;;;4944111;28;20042;-90
2023/11/06 11:09:49;;;;;;;0.20;0.20;;;;;;;;;;4940483;28;20094;-89
2023/11/06 11:12:16;;;;;;;0.20;0.20;;;;;;;;;;4924154;28;20043;-88
2023/11/06 11:14:42;;;;;;;0.20;0.20;;;;;;;;;;4960919;28;20138;-95
2023/11/06 11:17:09;;;;;;;0.20;0.20;;;;;;;;;;4943720;28;20371;-88
2023/11/06 11:19:35;;;;;;;0.10;0.10;;;;;;;;;;4949863;28;20105;-89
2023/11/06 11:22:05;;;;;;;0.10;0.10;;;;;;;;;;4925151;28;20100;-90
2023/11/06 11:24:50;;;;;;;0.10;0.10;;;;;;;;;;4940840;28;20050;-90
2023/11/06 11:27:21;;;;;;;0.20;0.20;;;;;;;;;;4956330;28;20042;-93
2023/11/06 11:29:56;;;;;;;0.10;0.10;;;;;;;;;;4938970;28;20564;-89
2023/11/06 11:32:36;;;;;;;0.10;0.10;;;;;;;;;;4955846;28;20093;-89
2023/11/06 11:35:13;;;;;;;0.77;0.77;;;;;;;;;;4955915;28;20049;-90
2023/11/06 11:37:39;;;;;;;0.10;0.10;;;;;;;;;;4955529;28;20053;-89
2023/11/06 11:40:07;;;;;;;0.10;0.10;;;;;;;;;;4924063;28;20050;-88
2023/11/06 11:42:33;;;;;;;0.10;0.10;;;;;;;;;;4939973;28;20513;-88
2023/11/06 11:45:01;;;;;;;0.20;0.20;;;;;;;;;;4924018;28;20047;-88
2023/11/06 11:47:55;;;;;;;0.10;0.10;;;;;;;;;;4924230;28;20074;-87
2023/11/06 11:50:41;;;;;;;0.10;0.10;;;;;;;;;;4953531;28;20049;-88
2023/11/06 11:53:08;;;;;;;0.10;0.10;;;;;;;;;;4939736;28;20043;-86
2023/11/06 11:55:38;;;;;;;0.10;0.10;;;;;;;;;;4924344;28;20045;-88
2023/11/06 11:58:07;;;;;;;0.13;0.13;;;;;;;;;;4939880;28;20618;-87
2023/11/06 12:00:34;;;;;;;0.28;0.28;;;;;;;;;;4939557;28;20562;-88
2023/11/06 12:03:16;;;;;;;0.10;0.10;;;;;;;;;;4939789;28;20058;-88
2023/11/06 12:05:46;;;;;;;0.10;0.10;;;;;;;;;;4923828;28;20042;-89
2023/11/06 12:08:23;;;;;;;0.10;0.10;;;;;;;;;;4939897;28;20042;-89
2023/11/06 12:10:49;;;;;;;0.10;0.10;;;;;;;;;;4937600;28;20043;-89
2023/11/06 12:13:16;;;;;;;0.10;0.10;;;;;;;;;;4947315;28;20047;-88
2023/11/06 12:15:42;;;;;;;0.10;0.10;;;;;;;;;;4924949;28;20038;-89
2023/11/06 12:18:08;;;;;;;0.20;0.20;;;;;;;;;;4939668;28;20174;-90
2023/11/06 12:20:34;;;;;;;0.10;0.10;;;;;;;;;;4938848;28;20499;-90
2023/11/06 12:23:00;;;;;;;0.15;0.15;;;;;;;;;;4939240;28;20126;-91
2023/11/06 12:25:31;;;;;;;0.10;0.10;;;;;;;;;;4927370;28;20482;-89
2023/11/06 12:28:10;;;;;;;0.20;0.20;;;;;;;;;;4943392;28;20042;-89
2023/11/06 12:30:37;;;;;;;0.10;0.10;;;;;;;;;;4958847;28;20109;-89
2023/11/06 12:33:19;;;;;;;0.10;0.10;;;;;;;;;;4943258;28;20046;-90
2023/11/06 12:35:45;;;;;;;0.10;0.10;;;;;;;;;;4927081;28;20045;-89
2023/11/06 12:38:12;;;;;;;0.10;0.10;;;;;;;;;;4942949;28;20043;-88
2023/11/06 12:40:44;;;;;;;0.10;0.10;;;;;;;;;;4942920;28;20122;-88
2023/11/06 12:43:12;;;;;;;0.10;0.10;;;;;;;;;;4942668;28;20047;-87
2023/11/06 12:45:39;;;;;;;0.10;0.10;;;;;;;;;;4958737;28;20490;-85
2023/11/06 12:48:28;;;;;;;0.10;0.10;;;;;;;;;;4926485;28;20501;-89
2023/11/06 12:51:10;;;;;;;0.38;0.38;;;;;;;;;;4943212;28;20137;-89
2023/11/06 12:53:39;;;;;;;0.10;0.10;;;;;;;;;;4958889;28;20386;-88
2023/11/06 12:56:06;;;;;;;0.10;0.10;;;;;;;;;;4942908;28;20379;-88
2023/11/06 12:58:35;;;;;;;0.10;0.10;;;;;;;;;;4942592;28;20043;-91
2023/11/06 13:01:02;;;;;;;0.10;0.10;;;;;;;;;;4942925;28;20053;-87
2023/11/06 13:03:33;;;;;;;0.10;0.10;;;;;;;;;;4949083;28;20113;-88
2023/11/06 13:06:00;;;;;;;0.10;0.10;;;;;;;;;;4942988;28;20557;-90
2023/11/06 13:08:26;;;;;;;0.10;0.10;;;;;;;;;;4948505;28;20043;-88
2023/11/06 13:10:52;;;;;;;0.10;0.10;;;;;;;;;;4958055;28;20410;-89
2023/11/06 13:13:18;;;;;;;0.10;0.10;;;;;;;;;;4926349;28;20130;-87
2023/11/06 13:15:46;;;;;;;0.10;0.10;;;;;;;;;;4942304;28;20046;-87
2023/11/06 13:18:12;;;;;;;0.10;0.10;;;;;;;;;;4926795;28;20386;-87
2023/11/06 13:20:53;;;;;;;0.10;0.10;;;;;;;;;;4958161;28;20039;-88
2023/11/06 13:23:19;;;;;;;0.10;0.10;;;;;;;;;;4943928;28;20093;-87
2023/11/06 13:25:45;;;;;;;0.10;0.10;;;;;;;;;;4942109;28;20074;-87
2023/11/06 13:28:11;;;;;;;0.15;0.15;;;;;;;;;;4942044;28;20049;-87
2023/11/06 13:30:42;;;;;;;0.17;0.17;;;;;;;;;;4958116;28;20034;-87
2023/11/06 13:33:08;;;;;;;0.20;0.20;;;;;;;;;;4926640;28;20503;-87
2023/11/06 13:35:39;;;;;;;0.10;0.10;;;;;;;;;;4941377;28;20043;-87
2023/11/06 13:38:06;;;;;;;0.10;0.10;;;;;;;;;;4940979;28;20050;-87
2023/11/06 13:40:32;;;;;;;0.10;0.10;;;;;;;;;;4926102;28;20179;-87
2023/11/06 13:43:01;;;;;;;0.10;0.10;;;;;;;;;;4941962;28;20046;-88
2023/11/06 13:45:27;;;;;;;0.10;0.10;;;;;;;;;;4941845;28;20545;-88
2023/11/06 13:48:04;;;;;;;0.10;0.10;;;;;;;;;;4941527;28;20063;-87
2023/11/06 13:50:32;;;;;;;0.10;0.10;;;;;;;;;;4942838;28;20066;-87
2023/11/06 13:53:09;;;;;;;0.10;0.10;;;;;;;;;;4941594;28;20053;-87
2023/11/06 13:55:38;;;;;;;0.15;0.15;;;;;;;;;;4957801;28;20038;-87
2023/11/06 13:58:05;;;;;;;0.10;0.10;;;;;;;;;;4926075;28;20078;-87
2023/11/06 14:01:07;;;;;;;0.10;0.10;;;;;;;;;;4941704;28;20387;-88
2023/11/06 14:03:23;;;;;;;0.10;0.10;;;;;;;;;;4958478;28;20479;-87
2023/11/06 14:05:51;;;;;;;0.10;0.10;;;;;;;;;;4957715;28;20402;-87
2023/11/06 14:08:24;;;;;;;0.10;0.10;;;;;;;;;;4957639;28;20087;-87
2023/11/06 14:10:50;;;;;;;0.10;0.10;;;;;;;;;;4939990;28;20130;-88
2023/11/06 14:13:21;;;;;;;0.10;0.10;;;;;;;;;;4940187;28;20125;-88
2023/11/06 14:15:50;;;;;;;0.10;0.10;;;;;;;;;;4941688;28;20034;-87
2023/11/06 14:18:23;;;;;;;0.20;0.20;;;;;;;;;;4957126;28;20053;-87
2023/11/06 14:20:50;;;;;;;0.10;0.10;;;;;;;;;;4941155;28;20506;-87
2023/11/06 14:23:17;;;;;;;0.20;0.20;;;;;;;;;;4941166;28;20047;-87
2023/11/06 14:25:45;;;;;;;0.10;0.10;;;;;;;;;;4925054;28;20550;-87
2023/11/06 14:28:11;;;;;;;0.10;0.10;;;;;;;;;;4925605;28;20045;-87
2023/11/06 14:30:37;;;;;;;0.10;0.10;;;;;;;;;;4956956;28;20105;-87
2023/11/06 14:33:07;;;;;;;0.10;0.10;;;;;;;;;;4925081;28;20043;-89
2023/11/06 14:35:33;;;;;;;0.10;0.10;;;;;;;;;;4956878;28;20074;-86
2023/11/06 14:37:59;;;;;;;0.10;0.10;;;;;;;;;;4940876;28;20043;-87
2023/11/06 14:40:25;;;;;;;0.10;0.10;;;;;;;;;;4924787;28;20174;-87
2023/11/06 14:42:53;;;;;;;0.10;0.10;;;;;;;;;;4940777;28;20045;-87
2023/11/06 14:45:19;;;;;;;0.10;0.10;;;;;;;;;;4956893;28;20050;-86
2023/11/06 14:47:45;;;;;;;0.10;0.10;;;;;;;;;;4956213;28;20125;-87